createdAt,value
2022-08-02T06:01:54.139Z,61.25
2022-08-02T06:02:56.958Z,72.51
2022-08-02T06:03:54.858Z,73.15
2022-08-02T06:05:07.013Z,68.32
2022-08-02T06:05:56.649Z,68.49
2022-08-02T06:06:56.911Z,67.12
2022-08-02T06:07:57.627Z,65.10
2022-08-02T06:08:58.847Z,66.90
2022-08-02T06:09:58.566Z,64.53
2022-08-02T06:10:59.152Z,61.82
2022-08-02T06:12:01.511Z,61.50
2022-08-02T06:12:59.992Z,60.52
2022-08-02T06:14:00.127Z,58.72
2022-08-02T06:15:01.569Z,58.87
2022-08-02T06:16:00.804Z,58.57
2022-08-02T06:17:00.865Z,57.51
2022-08-02T06:18:01.533Z,57.97
2022-08-02T06:19:03.282Z,56.54
2022-08-02T06:20:03.174Z,55.80
2022-08-02T06:22:31.690Z,58.00
2022-08-02T06:22:42.028Z,59.26
2022-08-02T06:23:04.130Z,57.86
2022-08-02T06:24:05.193Z,56.99
2022-08-02T06:24:21.557Z,55.94
2022-08-02T06:25:49.778Z,55.74
2022-08-02T06:26:22.729Z,55.45
2022-08-02T06:27:23.241Z,55.24
2022-08-02T06:28:24.194Z,53.90
2022-08-02T06:29:24.903Z,52.96
2022-08-02T06:30:27.144Z,51.67
2022-08-02T06:31:25.875Z,52.32
2022-08-02T06:32:28.636Z,52.65
2022-08-02T06:33:26.028Z,51.76
2022-08-02T06:34:26.436Z,51.55
2022-08-02T06:35:27.404Z,51.64
2022-08-02T06:36:27.599Z,51.55
2022-08-02T06:37:28.154Z,52.15
2022-08-02T06:38:28.211Z,52.28
2022-08-02T06:39:28.220Z,52.81
2022-08-02T06:40:28.906Z,52.10
2022-08-02T06:41:29.508Z,52.22
2022-08-02T06:42:31.393Z,51.15
2022-08-02T06:43:31.342Z,50.69
2022-08-02T06:44:49.704Z,51.40
2022-08-02T06:45:32.377Z,50.87
2022-08-02T06:47:09.564Z,50.29
2022-08-02T06:47:39.496Z,49.26
2022-08-02T06:48:34.148Z,50.31
2022-08-02T06:49:51.940Z,49.52
2022-08-02T06:50:35.136Z,49.34
2022-08-02T06:51:36.159Z,48.94
2022-08-02T06:51:44.869Z,48.83
2022-08-02T06:52:45.531Z,49.05
2022-08-02T06:53:47.471Z,53.79
2022-08-02T06:54:46.777Z,54.73
2022-08-02T06:55:48.583Z,57.67
2022-08-02T06:56:48.591Z,56.79
2022-08-02T06:57:49.099Z,57.54
2022-08-02T06:58:49.967Z,57.73
2022-08-02T06:59:49.434Z,57.16
2022-08-02T07:00:51.104Z,59.78
2022-08-02T07:01:51.413Z,59.15
2022-08-02T07:02:50.658Z,57.92
2022-08-02T07:03:52.050Z,60.74
2022-08-02T07:04:51.299Z,59.29
2022-08-02T07:05:53.058Z,59.91
2022-08-02T07:06:53.122Z,58.87
2022-08-02T07:07:54.050Z,57.51
2022-08-02T07:09:18.282Z,57.04
2022-08-02T07:09:56.587Z,56.15
2022-08-02T07:10:54.982Z,55.54
2022-08-02T07:11:55.570Z,55.32
2022-08-02T07:12:59.667Z,55.04
2022-08-02T07:13:56.578Z,55.75
2022-08-02T07:14:05.205Z,54.36
2022-08-02T07:15:05.864Z,54.45
2022-08-02T07:16:06.404Z,53.40
2022-08-02T07:17:07.691Z,52.72
2022-08-02T07:18:06.981Z,52.72
2022-08-02T07:19:08.021Z,52.18
2022-08-02T07:20:07.608Z,50.90
2022-08-02T07:21:08.804Z,50.95
2022-08-02T07:22:08.856Z,52.91
2022-08-02T07:23:10.834Z,54.90
2022-08-02T07:24:09.930Z,58.96
2022-08-02T07:25:11.263Z,62.64
2022-08-02T07:26:11.711Z,65.04
2022-08-02T07:27:13.281Z,66.31
2022-08-02T07:28:20.834Z,63.90
2022-08-02T07:29:12.418Z,61.09
2022-08-02T07:30:14.300Z,61.71
2022-08-02T07:31:14.691Z,64.60
2022-08-02T07:32:14.241Z,63.48
2022-08-02T07:33:38.851Z,65.36
2022-08-02T07:34:14.908Z,63.03
2022-08-02T07:35:19.277Z,63.36
2022-08-02T07:36:22.446Z,61.13
2022-08-02T07:37:36.096Z,60.97
2022-08-02T07:38:16.361Z,62.39
2022-08-02T07:39:16.868Z,61.05
2022-08-02T07:39:25.519Z,60.58
2022-08-02T07:40:25.754Z,60.33
2022-08-02T07:41:26.630Z,59.88
2022-08-02T07:42:27.614Z,59.72
2022-08-02T07:43:28.552Z,61.26
2022-08-02T07:44:29.212Z,62.61
2022-08-02T07:45:28.300Z,63.98
2022-08-02T07:46:29.351Z,69.03
2022-08-02T07:47:28.341Z,69.46
2022-08-02T07:48:29.926Z,66.11
2022-08-02T07:49:29.996Z,65.32
2022-08-02T07:50:30.656Z,64.04
2022-08-02T07:51:32.181Z,63.95
2022-08-02T07:52:32.294Z,62.63
2022-08-02T07:53:50.054Z,63.47
2022-08-02T07:54:32.112Z,61.36
2022-08-02T07:55:40.426Z,60.66
2022-08-02T07:56:33.632Z,61.02
2022-08-02T07:57:34.261Z,62.56
2022-08-02T07:58:36.046Z,61.32
2022-08-02T07:59:36.687Z,60.90
2022-08-02T08:00:35.694Z,60.00
2022-08-02T08:01:35.845Z,61.14
2022-08-02T08:02:36.505Z,60.62
2022-08-02T08:02:46.370Z,61.75
2022-08-02T08:03:47.112Z,61.43
2022-08-02T08:04:48.579Z,60.93
2022-08-02T08:05:47.770Z,60.77
2022-08-02T08:06:49.423Z,61.35
2022-08-02T08:07:49.532Z,60.34
2022-08-02T08:08:49.863Z,60.72
2022-08-02T08:09:50.717Z,60.68
2022-08-02T08:10:50.137Z,61.13
2022-08-02T08:11:51.986Z,61.33
2022-08-02T08:12:52.889Z,62.91
2022-08-02T08:13:53.520Z,65.91
2022-08-02T08:14:53.161Z,68.67
2022-08-02T08:15:53.183Z,66.29
2022-08-02T08:16:54.376Z,66.31
2022-08-02T08:17:54.419Z,64.50
2022-08-02T08:18:55.040Z,66.71
2022-08-02T08:19:55.035Z,65.95
2022-08-02T08:20:54.744Z,65.87
2022-08-02T08:21:56.505Z,65.35
2022-08-02T08:22:56.754Z,65.85
2022-08-02T08:23:06.752Z,67.33
2022-08-02T08:24:07.195Z,67.26
2022-08-02T08:25:08.557Z,67.17
2022-08-02T08:26:07.729Z,67.41
2022-08-02T08:27:09.379Z,67.94
2022-08-02T08:28:09.982Z,65.94
2022-08-02T08:29:10.704Z,65.89
2022-08-02T08:30:09.984Z,67.09
2022-08-02T08:31:10.413Z,66.41
2022-08-02T08:32:17.962Z,65.76
2022-08-02T08:33:11.642Z,66.08
2022-08-02T08:34:12.071Z,65.62
2022-08-02T08:35:12.313Z,64.38
2022-08-02T08:36:13.606Z,63.98
2022-08-02T08:37:17.853Z,64.44
2022-08-02T08:38:14.046Z,64.22
2022-08-02T08:39:14.184Z,63.44
2022-08-02T08:40:19.652Z,63.22
2022-08-02T08:41:15.317Z,62.53
2022-08-02T08:42:17.178Z,61.59
2022-08-02T08:43:16.911Z,61.78
2022-08-02T08:44:18.407Z,63.00
2022-08-02T08:45:18.888Z,62.23
2022-08-02T08:46:17.911Z,62.67
2022-08-02T08:46:30.545Z,62.36
2022-08-02T08:47:33.800Z,62.39
2022-08-02T08:48:31.984Z,61.75
2022-08-02T08:49:31.944Z,62.64
2022-08-02T08:50:32.366Z,61.91
2022-08-02T08:51:33.923Z,61.13
2022-08-02T08:52:34.464Z,60.49
2022-08-02T08:53:36.566Z,59.20
2022-08-02T08:54:33.696Z,59.12
2022-08-02T08:55:34.506Z,61.09
2022-08-02T08:56:35.870Z,61.28
2022-08-02T08:57:35.790Z,60.07
2022-08-02T08:58:35.984Z,60.05
2022-08-02T08:59:39.217Z,59.15
2022-08-02T09:00:36.602Z,59.80
2022-08-02T09:01:49.907Z,59.62
2022-08-02T09:02:37.944Z,59.48
2022-08-02T09:03:39.750Z,59.11
2022-08-02T09:04:39.373Z,59.00
2022-08-02T09:05:40.538Z,58.37
2022-08-02T09:06:41.340Z,57.79
2022-08-02T09:07:40.807Z,57.73
2022-08-02T09:08:41.784Z,57.54
2022-08-02T09:09:42.722Z,57.18
2022-08-02T09:10:43.809Z,57.60
2022-08-02T09:11:43.567Z,58.20
2022-08-02T09:11:53.223Z,57.15
2022-08-02T09:12:52.700Z,57.20
2022-08-02T09:13:53.133Z,57.67
2022-08-02T09:14:55.102Z,55.43
2022-08-02T09:15:55.316Z,55.12
2022-08-02T09:16:55.510Z,55.34
2022-08-02T09:17:55.487Z,54.68
2022-08-02T09:18:56.932Z,56.09
2022-08-02T09:19:56.334Z,54.53
2022-08-02T09:20:58.569Z,54.15
2022-08-02T09:21:57.217Z,54.63
2022-08-02T09:22:57.268Z,54.08
2022-08-02T09:23:57.986Z,52.87
2022-08-02T09:24:59.085Z,53.84
2022-08-02T09:25:59.537Z,54.32
2022-08-02T09:26:59.370Z,53.67
2022-08-02T09:28:00.408Z,53.57
2022-08-02T09:29:01.147Z,54.01
2022-08-02T09:30:12.091Z,50.87
2022-08-02T09:31:00.838Z,51.93
2022-08-02T09:32:02.713Z,51.26
2022-08-02T09:33:05.676Z,51.76
2022-08-02T09:34:02.952Z,51.74
2022-08-02T09:35:03.490Z,51.13
2022-08-02T09:36:06.882Z,51.13
2022-08-02T09:37:05.029Z,50.73
2022-08-02T09:37:15.440Z,50.72
2022-08-02T09:38:14.858Z,50.68
2022-08-02T09:39:16.015Z,50.81
2022-08-02T09:40:16.775Z,50.08
2022-08-02T09:41:16.910Z,49.68
2022-08-02T09:42:18.480Z,49.82
2022-08-02T09:43:17.729Z,50.03
2022-08-02T09:44:19.627Z,50.32
2022-08-02T09:45:18.677Z,50.30
2022-08-02T09:46:24.568Z,50.19
2022-08-02T09:47:19.803Z,49.77
2022-08-02T09:48:20.574Z,49.77
2022-08-02T09:49:22.551Z,49.86
2022-08-02T09:50:22.321Z,49.90
2022-08-02T09:51:22.632Z,49.95
2022-08-02T09:52:24.261Z,50.14
2022-08-02T09:53:23.651Z,49.59
2022-08-02T09:54:25.951Z,49.83
2022-08-02T09:55:24.173Z,49.48
2022-08-02T09:56:29.599Z,49.78
2022-08-02T09:57:24.776Z,50.05
2022-08-02T09:58:24.878Z,49.58
2022-08-02T09:59:25.451Z,49.25
2022-08-02T10:00:43.537Z,49.08
2022-08-02T10:01:26.648Z,49.35
2022-08-02T10:02:26.612Z,49.76
2022-08-02T10:03:35.047Z,49.76
2022-08-02T10:04:27.646Z,49.29
2022-08-02T10:04:53.408Z,49.33
2022-08-02T10:05:45.444Z,49.35
2022-08-02T10:06:38.223Z,49.08
2022-08-02T10:07:38.196Z,49.07
2022-08-02T10:08:38.779Z,49.43
2022-08-02T10:09:43.343Z,49.31
2022-08-02T10:10:40.643Z,49.49
2022-08-02T10:11:41.480Z,49.11
2022-08-02T10:12:41.698Z,49.17
2022-08-02T10:13:41.172Z,48.98
2022-08-02T10:14:42.106Z,48.73
2022-08-02T10:15:50.612Z,48.83
2022-08-02T10:16:43.305Z,48.13
2022-08-02T10:17:42.266Z,48.69
2022-08-02T10:18:43.563Z,48.20
2022-08-02T10:20:00.742Z,48.41
2022-08-02T10:20:44.770Z,48.24
2022-08-02T10:21:49.688Z,48.16
2022-08-02T10:22:45.578Z,48.57
2022-08-02T10:23:44.842Z,48.05
2022-08-02T10:24:48.463Z,48.66
2022-08-02T10:24:54.643Z,48.30
2022-08-02T10:25:56.012Z,48.37
2022-08-02T10:26:55.459Z,48.59
2022-08-02T10:28:05.334Z,48.84
2022-08-02T10:28:57.042Z,49.08
2022-08-02T10:29:57.788Z,48.81
2022-08-02T10:30:58.250Z,48.57
2022-08-02T10:31:58.897Z,49.02
2022-08-02T10:33:00.754Z,48.22
2022-08-02T10:34:00.286Z,48.20
2022-08-02T10:35:19.090Z,48.75
2022-08-02T10:36:07.274Z,48.66
2022-08-02T10:37:02.115Z,48.32
2022-08-02T10:38:03.877Z,48.53
2022-08-02T10:39:03.678Z,48.56
2022-08-02T10:40:05.150Z,48.70
2022-08-02T10:41:06.121Z,49.56
2022-08-02T10:42:09.311Z,49.37
2022-08-02T10:43:06.119Z,49.45
2022-08-02T10:44:06.538Z,50.07
2022-08-02T10:45:06.888Z,50.38
2022-08-02T10:46:08.585Z,50.18
2022-08-02T10:47:08.052Z,50.26
2022-08-02T10:48:08.644Z,49.95
2022-08-02T10:49:37.524Z,49.90
2022-08-02T10:50:09.846Z,49.99
2022-08-02T10:50:18.400Z,49.88
2022-08-02T10:51:19.018Z,49.84
2022-08-02T10:52:19.834Z,50.06
2022-08-02T10:53:20.266Z,49.71
2022-08-02T10:54:21.618Z,48.98
2022-08-02T10:55:22.520Z,49.17
2022-08-02T10:56:21.273Z,48.08
2022-08-02T10:57:22.110Z,47.76
2022-08-02T10:58:26.318Z,48.13
2022-08-02T10:59:22.659Z,49.08
2022-08-02T11:00:24.617Z,48.03
2022-08-02T11:01:24.342Z,48.32
2022-08-02T11:02:25.200Z,48.04
2022-08-02T11:03:27.171Z,47.72
2022-08-02T11:04:26.504Z,47.35
2022-08-02T11:05:27.818Z,47.32
2022-08-02T11:06:26.960Z,48.33
2022-08-02T11:07:28.089Z,48.10
2022-08-02T11:08:29.083Z,47.66
2022-08-02T11:09:32.803Z,47.18
2022-08-02T11:10:28.932Z,46.87
2022-08-02T11:11:54.411Z,46.55
2022-08-02T11:12:29.544Z,46.66
2022-08-02T11:13:30.398Z,45.95
2022-08-02T11:14:30.933Z,45.68
2022-08-02T11:15:31.037Z,45.93
2022-08-02T11:16:31.520Z,46.78
2022-08-02T11:16:42.271Z,46.82
2022-08-02T11:17:43.064Z,46.83
2022-08-02T11:18:44.902Z,46.76
2022-08-02T11:19:44.519Z,46.57
2022-08-02T11:20:45.449Z,46.59
2022-08-02T11:21:47.912Z,46.53
2022-08-02T11:22:46.957Z,46.22
2022-08-02T11:23:47.588Z,46.51
2022-08-02T11:24:48.479Z,46.25
2022-08-02T11:26:03.888Z,46.10
2022-08-02T11:26:49.518Z,46.32
2022-08-02T11:27:50.268Z,46.44
2022-08-02T11:28:50.643Z,47.24
2022-08-02T11:29:52.260Z,46.06
2022-08-02T11:30:51.690Z,46.00
2022-08-02T11:31:52.432Z,45.78
2022-08-02T11:32:53.227Z,46.35
2022-08-02T11:33:54.194Z,47.21
2022-08-02T11:34:54.216Z,47.39
2022-08-02T11:35:55.537Z,47.15
2022-08-02T11:36:55.317Z,47.49
2022-08-02T11:37:55.522Z,47.82
2022-08-02T11:38:57.185Z,47.16
2022-08-02T11:39:56.998Z,47.39
2022-08-02T11:41:47.785Z,46.99
2022-08-02T11:42:46.324Z,46.40
2022-08-02T11:42:54.990Z,45.95
2022-08-02T11:43:55.016Z,45.90
2022-08-02T11:44:56.934Z,46.21
2022-08-02T11:45:57.689Z,46.58
2022-08-02T11:46:57.739Z,46.37
2022-08-02T11:47:58.994Z,46.37
2022-08-02T11:48:57.824Z,46.70
2022-08-02T11:49:58.050Z,46.71
2022-08-02T11:50:58.690Z,46.15
2022-08-02T11:52:00.601Z,46.65
2022-08-02T11:53:00.589Z,46.88
2022-08-02T11:54:01.048Z,46.38
2022-08-02T11:55:00.304Z,46.59
2022-08-02T11:56:01.058Z,45.87
2022-08-02T11:57:02.444Z,45.92
2022-08-02T11:58:02.803Z,45.78
2022-08-02T11:59:02.447Z,45.35
2022-08-02T12:00:03.311Z,45.08
2022-08-02T12:01:03.926Z,45.46
2022-08-02T12:02:05.659Z,45.63
2022-08-02T12:03:05.541Z,45.54
2022-08-02T12:04:05.531Z,46.01
2022-08-02T12:05:09.029Z,45.42
2022-08-02T12:06:10.814Z,45.05
2022-08-02T12:07:07.435Z,45.17
2022-08-02T12:08:08.074Z,44.93
2022-08-02T12:09:18.034Z,46.04
2022-08-02T12:09:18.165Z,45.46
2022-08-02T12:10:19.250Z,45.27
2022-08-02T12:11:18.022Z,46.01
2022-08-02T12:12:18.673Z,45.34
2022-08-02T12:13:20.290Z,45.00
2022-08-02T12:14:21.217Z,45.29
2022-08-02T12:15:21.296Z,44.80
2022-08-02T12:16:21.443Z,44.61
2022-08-02T12:17:21.994Z,44.74
2022-08-02T12:18:22.881Z,44.65
2022-08-02T12:19:22.918Z,45.01
2022-08-02T12:20:23.165Z,44.86
2022-08-02T12:21:22.735Z,46.11
2022-08-02T12:22:24.256Z,46.24
2022-08-02T12:23:23.701Z,45.38
2022-08-02T12:24:25.142Z,45.71
2022-08-02T12:25:33.918Z,46.06
2022-08-02T12:26:24.949Z,46.15
2022-08-02T12:27:26.601Z,45.43
2022-08-02T12:28:27.109Z,45.30
2022-08-02T12:29:58.659Z,45.15
2022-08-02T12:30:28.011Z,45.09
2022-08-02T12:31:27.550Z,45.31
2022-08-02T12:31:57.402Z,45.37
2022-08-02T12:32:40.653Z,45.73
2022-08-02T12:33:41.707Z,44.76
2022-08-02T12:34:41.447Z,45.12
2022-08-02T12:35:42.168Z,45.19
2022-08-02T12:36:42.606Z,44.74
2022-08-02T12:37:44.369Z,44.44
2022-08-02T12:38:45.043Z,44.55
2022-08-02T12:39:44.912Z,44.44
2022-08-02T12:40:46.911Z,44.61
2022-08-02T12:41:54.783Z,44.72
2022-08-02T12:42:46.412Z,44.62
2022-08-02T12:43:47.774Z,44.76
2022-08-02T12:44:48.499Z,45.15
2022-08-02T12:45:48.974Z,44.40
2022-08-02T12:46:48.631Z,44.91
2022-08-02T12:47:49.004Z,44.84
2022-08-02T12:49:16.016Z,44.79
2022-08-02T12:49:49.960Z,44.61
2022-08-02T12:50:50.741Z,45.08
2022-08-02T12:51:57.031Z,44.57
2022-08-02T12:52:51.881Z,44.19
2022-08-02T12:53:59.883Z,44.04
2022-08-02T12:54:53.052Z,44.56
2022-08-02T12:56:02.189Z,43.92
2022-08-02T12:56:53.670Z,44.39
2022-08-02T12:57:54.988Z,43.98
2022-08-02T12:58:11.381Z,44.29
2022-08-02T12:59:12.033Z,44.26
2022-08-02T13:00:12.252Z,43.67
2022-08-02T13:01:13.028Z,43.34
2022-08-02T13:02:13.908Z,43.93
2022-08-02T13:04:11.363Z,43.95
2022-08-02T13:04:16.400Z,43.93
2022-08-02T13:05:14.534Z,43.92
2022-08-02T13:06:42.046Z,43.60
2022-08-02T13:07:14.836Z,43.67
2022-08-02T13:08:16.413Z,43.46
2022-08-02T13:09:15.639Z,43.40
2022-08-02T13:10:16.240Z,44.12
2022-08-02T13:11:17.315Z,44.04
2022-08-02T13:12:17.925Z,43.90
2022-08-02T13:13:17.124Z,43.74
2022-08-02T13:14:18.837Z,43.77
2022-08-02T13:15:48.833Z,43.59
2022-08-02T13:16:30.916Z,42.54
2022-08-02T13:17:20.208Z,43.61
2022-08-02T13:18:20.439Z,43.66
2022-08-02T13:19:20.462Z,44.74
2022-08-02T13:20:21.229Z,44.42
2022-08-02T13:21:40.947Z,43.60
2022-08-02T13:22:22.855Z,43.69
2022-08-02T13:23:25.380Z,44.24
2022-08-02T13:24:41.024Z,43.82
2022-08-02T13:25:23.707Z,43.63
2022-08-02T13:25:36.424Z,43.88
2022-08-02T13:26:37.221Z,43.98
2022-08-02T13:27:38.910Z,43.39
2022-08-02T13:28:38.051Z,43.41
2022-08-02T13:29:39.022Z,43.59
2022-08-02T13:30:39.746Z,43.86
2022-08-02T13:31:41.588Z,43.44
2022-08-02T13:32:41.520Z,43.91
2022-08-02T13:33:44.247Z,44.13
2022-08-02T13:34:49.764Z,43.99
2022-08-02T13:35:43.179Z,44.01
2022-08-02T13:36:43.380Z,44.34
2022-08-02T13:37:44.163Z,44.93
2022-08-02T13:38:45.795Z,44.88
2022-08-02T13:39:55.600Z,44.76
2022-08-02T13:41:03.462Z,44.94
2022-08-02T13:41:45.697Z,44.84
2022-08-02T13:42:46.697Z,44.47
2022-08-02T13:43:53.470Z,45.22
2022-08-02T13:44:46.826Z,45.31
2022-08-02T13:45:47.121Z,44.10
2022-08-02T13:46:47.288Z,44.71
2022-08-02T13:48:03.309Z,44.69
2022-08-02T13:48:50.521Z,44.55
2022-08-02T13:49:51.162Z,44.71
2022-08-02T13:50:51.846Z,44.82
2022-08-02T13:51:49.629Z,44.53
2022-08-02T13:52:50.698Z,44.93
2022-08-02T13:53:50.329Z,44.86
2022-08-02T13:54:52.228Z,44.05
2022-08-02T13:55:04.120Z,44.45
2022-08-02T13:56:04.199Z,44.44
2022-08-02T13:57:04.354Z,44.95
2022-08-02T13:58:04.431Z,44.28
2022-08-02T13:59:54.051Z,44.53
2022-08-02T14:00:05.034Z,44.33
2022-08-02T14:01:05.840Z,44.71
2022-08-02T14:02:07.816Z,44.76
2022-08-02T14:03:06.925Z,44.67
2022-08-02T14:04:08.859Z,44.75
2022-08-02T14:05:07.682Z,44.76
2022-08-02T14:06:09.084Z,44.89
2022-08-02T14:07:08.511Z,45.23
2022-08-02T14:08:14.512Z,45.14
2022-08-02T14:09:09.010Z,45.30
2022-08-02T14:10:09.766Z,45.32
2022-08-02T14:11:10.809Z,45.32
2022-08-02T14:12:11.514Z,45.26
2022-08-02T14:13:10.294Z,45.62
2022-08-02T14:14:15.944Z,45.51
2022-08-02T14:15:11.797Z,45.20
2022-08-02T14:16:12.656Z,44.78
2022-08-02T14:17:14.312Z,44.85
2022-08-02T14:18:14.939Z,44.91
2022-08-02T14:18:26.591Z,44.86
2022-08-02T14:19:26.848Z,44.94
2022-08-02T14:20:30.394Z,44.84
2022-08-02T14:21:28.120Z,44.53
2022-08-02T14:22:30.100Z,44.74
2022-08-02T14:23:50.120Z,45.03
2022-08-02T14:24:29.790Z,44.66
2022-08-02T14:25:31.498Z,44.78
2022-08-02T14:26:31.367Z,44.17
2022-08-02T14:27:39.236Z,44.03
2022-08-02T14:28:32.303Z,44.24
2022-08-02T14:29:32.503Z,44.27
2022-08-02T14:30:32.725Z,43.67
2022-08-02T14:31:32.922Z,43.98
2022-08-02T14:32:34.261Z,43.91
2022-08-02T14:33:34.922Z,44.31
2022-08-02T14:34:34.431Z,44.15
2022-08-02T14:35:36.178Z,44.61
2022-08-02T14:36:36.666Z,44.98
2022-08-02T14:37:37.612Z,44.34
2022-08-02T14:38:37.702Z,43.43
2022-08-02T14:39:43.031Z,43.95
2022-08-02T14:40:37.837Z,43.98
2022-08-02T14:41:58.187Z,44.58
2022-08-02T14:42:38.593Z,44.04
2022-08-02T14:42:48.343Z,44.37
2022-08-02T14:43:48.666Z,44.48
2022-08-02T14:44:49.282Z,43.58
2022-08-02T14:45:49.953Z,44.06
2022-08-02T14:46:52.145Z,44.34
2022-08-02T14:47:50.602Z,44.01
2022-08-02T14:48:52.277Z,44.63
2022-08-02T14:49:52.295Z,44.51
2022-08-02T14:50:52.914Z,44.85
2022-08-02T14:51:54.775Z,44.87
2022-08-02T14:52:53.982Z,44.55
2022-08-02T14:54:02.955Z,43.71
2022-08-02T14:54:55.064Z,43.21
2022-08-02T14:55:56.001Z,43.65
2022-08-02T14:56:57.201Z,44.02
2022-08-02T14:57:57.646Z,43.99
2022-08-02T14:58:57.884Z,43.81
2022-08-02T14:59:58.619Z,43.26
2022-08-02T15:00:57.924Z,43.89
2022-08-02T15:01:58.162Z,43.83
2022-08-02T15:02:58.934Z,43.46
2022-08-02T15:03:59.017Z,43.39
2022-08-02T15:04:59.778Z,43.09
2022-08-02T15:06:01.719Z,43.27
2022-08-02T15:07:02.085Z,43.67
2022-08-02T15:07:10.788Z,43.51
2022-08-02T15:08:11.639Z,43.72
2022-08-02T15:09:13.372Z,43.59
2022-08-02T15:10:14.072Z,43.15
2022-08-02T15:11:15.016Z,43.17
2022-08-02T15:12:15.959Z,43.98
2022-08-02T15:13:15.333Z,43.43
2022-08-02T15:14:22.071Z,43.14
2022-08-02T15:15:16.801Z,43.02
2022-08-02T15:16:18.654Z,43.16
2022-08-02T15:17:19.507Z,43.11
2022-08-02T15:18:20.496Z,43.82
2022-08-02T15:19:19.975Z,43.52
2022-08-02T15:20:24.797Z,43.53
2022-08-02T15:21:41.581Z,42.65
2022-08-02T15:22:21.417Z,42.30
2022-08-02T15:23:21.648Z,42.99
2022-08-02T15:24:22.086Z,43.17
2022-08-02T15:25:23.417Z,42.88
2022-08-02T15:26:22.830Z,42.66
2022-08-02T15:27:23.787Z,42.78
2022-08-02T15:28:25.740Z,42.90
2022-08-02T15:29:25.598Z,42.46
2022-08-02T15:30:27.339Z,43.42
2022-08-02T15:30:36.167Z,43.59
2022-08-02T15:31:40.025Z,43.60
2022-08-02T15:32:37.206Z,43.38
2022-08-02T15:33:38.136Z,43.16
2022-08-02T15:34:38.298Z,42.85
2022-08-02T15:35:38.846Z,43.23
2022-08-02T15:36:39.414Z,42.70
2022-08-02T15:37:41.610Z,42.94
2022-08-02T15:38:39.983Z,43.09
2022-08-02T15:39:41.340Z,42.81
2022-08-02T15:40:40.917Z,42.18
2022-08-02T15:41:42.308Z,42.48
2022-08-02T15:42:42.402Z,42.19
2022-08-02T15:44:00.883Z,42.53
2022-08-02T15:44:43.369Z,42.30
2022-08-02T15:45:43.807Z,42.03
2022-08-02T15:46:45.625Z,42.35
2022-08-02T15:47:47.971Z,42.84
2022-08-02T15:48:45.497Z,43.00
2022-08-02T15:49:47.534Z,42.49
2022-08-02T15:50:47.415Z,42.23
2022-08-02T15:51:47.547Z,42.66
2022-08-02T15:52:47.913Z,43.26
2022-08-02T15:53:50.095Z,42.95
2022-08-02T15:54:11.123Z,42.96
2022-08-02T15:55:12.530Z,42.92
2022-08-02T15:56:13.205Z,43.29
2022-08-02T15:57:14.837Z,43.75
2022-08-02T15:58:27.688Z,43.17
2022-08-02T15:59:14.140Z,43.05
2022-08-02T16:00:18.048Z,43.19
2022-08-02T16:01:13.766Z,43.20
2022-08-02T16:02:13.818Z,43.42
2022-08-02T16:03:14.388Z,43.25
2022-08-02T16:04:16.322Z,42.85
2022-08-02T16:05:16.059Z,43.13
2022-08-02T16:06:16.564Z,43.12
2022-08-02T16:07:16.825Z,43.36
2022-08-02T16:08:17.069Z,43.92
2022-08-02T16:09:18.958Z,43.60
2022-08-02T16:10:19.389Z,43.54
2022-08-02T16:11:20.310Z,44.06
2022-08-02T16:12:20.414Z,44.11
2022-08-02T16:13:23.533Z,44.06
2022-08-02T16:14:20.893Z,43.63
2022-08-02T16:15:22.585Z,43.45
2022-08-02T16:16:22.713Z,43.16
2022-08-02T16:17:48.739Z,43.49
2022-08-02T16:17:51.292Z,43.43
2022-08-02T16:18:32.287Z,43.40
2022-08-02T16:19:49.114Z,43.50
2022-08-02T16:20:32.812Z,43.78
2022-08-02T16:21:34.682Z,43.49
2022-08-02T16:22:35.163Z,43.54
2022-08-02T16:24:01.090Z,43.62
2022-08-02T16:24:35.826Z,44.22
2022-08-02T16:25:41.523Z,44.78
2022-08-02T16:26:37.154Z,44.47
2022-08-02T16:27:57.822Z,43.78
2022-08-02T16:28:38.538Z,44.34
2022-08-02T16:29:38.547Z,44.76
2022-08-02T16:30:42.021Z,44.49
2022-08-02T16:31:42.527Z,44.68
2022-08-02T16:32:39.847Z,44.63
2022-08-02T16:33:41.421Z,44.79
2022-08-02T16:35:07.106Z,44.83
2022-08-02T16:35:47.413Z,43.95
2022-08-02T16:36:42.516Z,44.30
2022-08-02T16:37:52.183Z,43.75
2022-08-02T16:38:43.281Z,44.02
2022-08-02T16:39:43.980Z,43.88
2022-08-02T16:40:44.197Z,43.88
2022-08-02T16:41:50.389Z,44.01
2022-08-02T16:41:58.886Z,44.20
2022-08-02T16:43:00.283Z,44.19
2022-08-02T16:43:59.929Z,44.26
2022-08-02T16:45:00.330Z,44.01
2022-08-02T16:46:00.673Z,43.67
2022-08-02T16:47:01.995Z,44.15
2022-08-02T16:48:05.206Z,44.11
2022-08-02T16:49:01.730Z,44.11
2022-08-02T16:50:07.292Z,43.99
2022-08-02T16:51:02.981Z,43.84
2022-08-02T16:52:02.939Z,44.29
2022-08-02T16:53:07.076Z,44.09
2022-08-02T16:54:03.998Z,44.40
2022-08-02T16:55:07.194Z,44.25
2022-08-02T16:56:04.863Z,44.30
2022-08-02T16:57:06.765Z,44.13
2022-08-02T16:58:09.843Z,44.01
2022-08-02T16:59:07.140Z,44.41
2022-08-02T17:00:07.609Z,45.05
2022-08-02T17:01:09.154Z,45.04
2022-08-02T17:02:15.299Z,44.50
2022-08-02T17:03:13.114Z,44.46
2022-08-02T17:04:09.302Z,44.21
2022-08-02T17:05:14.136Z,44.52
2022-08-02T17:06:11.035Z,44.43
2022-08-02T17:08:07.645Z,44.44
2022-08-02T17:08:54.185Z,44.46
2022-08-02T17:10:03.639Z,44.27
2022-08-02T17:10:30.705Z,44.08
2022-08-02T17:27:19.301Z,45.21
2022-08-02T17:28:35.549Z,45.20
2022-08-02T17:29:15.362Z,45.61
2022-08-02T17:32:37.517Z,46.13
2022-08-02T17:33:34.110Z,46.15
2022-08-02T17:34:32.274Z,46.31
2022-08-02T17:35:43.525Z,46.05
2022-08-02T17:37:20.340Z,46.26
2022-08-02T17:38:35.686Z,46.27
2022-08-02T17:39:14.565Z,46.53
2022-08-02T17:40:15.524Z,46.63
2022-08-02T17:41:18.930Z,47.01
2022-08-02T17:42:19.643Z,46.73
2022-08-02T17:43:29.060Z,46.55
2022-08-02T17:44:37.596Z,46.50
2022-08-02T17:45:25.354Z,46.67
2022-08-02T17:46:19.115Z,46.74
2022-08-02T17:47:30.771Z,46.68
2022-08-02T17:48:19.621Z,46.46
2022-08-02T17:49:22.228Z,46.84
2022-08-02T17:50:20.353Z,46.82
2022-08-02T17:51:33.023Z,47.00
2022-08-02T17:52:50.880Z,47.08
2022-08-02T17:53:21.800Z,47.23
2022-08-02T17:54:22.621Z,47.11
2022-08-02T17:55:25.342Z,47.31
2022-08-02T17:56:25.806Z,47.20
2022-08-02T18:01:54.268Z,47.59
2022-08-02T18:02:53.010Z,47.37
2022-08-02T18:02:55.553Z,47.77
2022-08-02T18:06:44.436Z,47.32
2022-08-02T18:11:05.012Z,47.32
2022-08-02T18:15:45.670Z,47.38
2022-08-02T18:17:17.960Z,47.48
2022-08-02T18:39:41.714Z,49.18
2022-08-02T18:40:36.479Z,49.17
2022-08-02T18:41:44.017Z,49.33
2022-08-02T18:42:37.330Z,49.51
2022-08-02T18:43:43.618Z,49.34
2022-08-02T18:44:41.128Z,49.56
2022-08-02T18:46:52.134Z,49.46
2022-08-02T18:47:44.764Z,49.69
2022-08-02T18:48:40.013Z,49.80
2022-08-02T18:49:46.731Z,49.63
2022-08-02T18:50:43.223Z,49.88
2022-08-02T18:51:48.768Z,50.00
2022-08-02T18:52:43.610Z,50.01
2022-08-02T18:53:43.971Z,50.25
2022-08-02T18:54:42.431Z,51.42
2022-08-02T18:56:03.874Z,51.57
2022-08-02T18:56:47.188Z,51.22
2022-08-02T18:58:02.107Z,51.53
2022-08-02T18:58:44.067Z,50.84
2022-08-02T18:59:47.244Z,51.63
2022-08-02T19:00:45.144Z,51.06
2022-08-02T19:01:50.517Z,51.70
2022-08-02T19:02:46.589Z,51.09
2022-08-02T19:03:49.228Z,51.85
2022-08-02T19:04:49.796Z,51.02
2022-08-02T19:06:27.416Z,52.13
2022-08-02T19:07:50.283Z,52.20
2022-08-02T19:12:04.764Z,51.97
2022-08-02T19:13:02.338Z,51.85
2022-08-02T19:14:28.129Z,52.19
2022-08-02T19:15:35.303Z,52.29
2022-08-02T19:16:18.918Z,52.50
2022-08-02T19:17:55.735Z,52.90
2022-08-02T19:19:20.686Z,53.11
2022-08-02T19:20:21.271Z,53.18
2022-08-02T19:22:17.246Z,53.00
2022-08-02T19:22:22.391Z,52.92
2022-08-02T19:23:23.100Z,52.96
2022-08-02T19:24:23.127Z,52.80
2022-08-02T19:25:28.191Z,53.15
2022-08-02T19:26:23.431Z,53.37
2022-08-02T19:27:32.705Z,53.55
2022-08-02T19:28:29.982Z,54.34
2022-08-02T19:29:42.834Z,54.25
2022-08-02T19:30:00.136Z,54.96
2022-08-02T19:30:50.361Z,54.85
2022-08-02T19:32:00.098Z,54.35
2022-08-02T19:33:00.173Z,54.66
2022-08-02T19:34:06.641Z,55.34
2022-08-02T19:34:52.361Z,55.61
2022-08-02T19:36:01.980Z,55.30
2022-08-02T19:36:57.145Z,56.19
2022-08-02T19:37:54.161Z,55.96
2022-08-02T19:38:56.953Z,55.88
2022-08-02T19:39:55.399Z,55.86